createdAt,value
2022-12-14T00:02:09.657Z,100638.66
2022-12-14T00:07:11.831Z,100626.50
2022-12-14T00:12:13.907Z,100605.28
2022-12-14T00:17:17.383Z,100604.47
2022-12-14T00:22:19.462Z,100599.72
2022-12-14T00:27:21.528Z,100603.34
2022-12-14T00:32:25.014Z,100600.06
2022-12-14T00:37:28.506Z,100593.94
2022-12-14T00:42:30.563Z,100596.09
2022-12-14T00:47:40.398Z,100599.25
2022-12-14T00:52:42.913Z,100597.28
2022-12-14T00:57:45.038Z,100592.31
2022-12-14T01:02:48.390Z,100591.66
2022-12-14T01:07:50.561Z,100587.63
2022-12-14T01:12:52.802Z,100585.47
2022-12-14T01:17:58.315Z,100581.69
2022-12-14T01:23:00.473Z,100579.50
2022-12-14T01:28:04.447Z,100586.50
2022-12-14T01:33:08.093Z,100581.25
2022-12-14T01:38:10.611Z,100583.31
2022-12-14T01:43:14.204Z,100573.13
2022-12-14T01:48:18.764Z,100568.38
2022-12-14T01:53:22.806Z,100562.88
2022-12-14T01:58:27.258Z,100559.16
2022-12-14T02:03:33.893Z,100558.13
2022-12-14T02:08:39.008Z,100568.56
2022-12-14T02:13:42.745Z,100577.44
2022-12-14T02:18:45.840Z,100580.97
2022-12-14T02:24:37.449Z,100571.41
2022-12-14T02:29:53.244Z,100561.63
2022-12-14T02:35:00.155Z,100552.91
2022-12-14T02:40:23.876Z,100555.41
2022-12-14T02:45:35.546Z,100552.72
2022-12-14T02:50:44.137Z,100547.31
2022-12-14T02:55:50.267Z,100543.63
2022-12-14T03:00:55.029Z,100551.19
2022-12-14T03:05:58.520Z,100542.97
2022-12-14T03:11:04.824Z,100534.91
2022-12-14T03:16:13.395Z,100530.38
2022-12-14T03:21:21.430Z,100521.63
2022-12-14T03:26:29.934Z,100516.50
2022-12-14T03:31:38.084Z,100511.13
2022-12-14T03:36:44.315Z,100503.03
2022-12-14T03:41:50.837Z,100495.25
2022-12-14T03:47:01.539Z,100500.88
2022-12-14T03:52:10.351Z,100502.44
2022-12-14T03:57:20.949Z,100492.19
2022-12-14T04:02:29.975Z,100483.72
2022-12-14T04:07:40.787Z,100490.22
2022-12-14T04:12:49.452Z,100473.66
2022-12-14T04:18:00.252Z,100463.38
2022-12-14T04:23:07.664Z,100468.53
2022-12-14T04:28:14.329Z,100457.78
2022-12-14T04:33:18.331Z,100461.16
2022-12-14T04:38:24.556Z,100458.25
2022-12-14T04:43:31.108Z,100456.06
2022-12-14T04:48:39.443Z,100444.41
2022-12-14T04:53:46.746Z,100441.59
2022-12-14T04:58:49.297Z,100435.38
2022-12-14T05:04:02.217Z,100429.06
2022-12-14T05:09:13.081Z,100438.22
2022-12-14T05:14:21.536Z,100423.75
2022-12-14T05:19:25.348Z,100424.91
2022-12-14T05:24:27.599Z,100412.50
2022-12-14T05:29:29.718Z,100398.84
2022-12-14T05:34:33.433Z,100387.38
2022-12-14T05:39:35.291Z,100378.91
2022-12-14T05:44:37.844Z,100379.31
2022-12-14T05:49:41.382Z,100362.91
2022-12-14T05:54:43.604Z,100355.59
2022-12-14T05:59:45.830Z,100352.25
2022-12-14T06:04:49.467Z,100355.03
2022-12-14T06:09:51.896Z,100360.56
2022-12-14T06:14:53.885Z,100363.31
2022-12-14T06:19:57.485Z,100358.47
2022-12-14T06:24:59.708Z,100360.81
2022-12-14T06:30:02.080Z,100352.84
2022-12-14T06:35:07.012Z,100350.78
2022-12-14T06:40:10.724Z,100345.53
2022-12-14T06:45:12.694Z,100345.34
2022-12-14T06:50:16.621Z,100345.16
2022-12-14T06:55:18.767Z,100330.66
2022-12-14T07:00:22.457Z,100324.63
2022-12-14T07:05:26.128Z,100320.25
2022-12-14T07:10:28.283Z,100317.78
2022-12-14T07:15:30.426Z,100317.78
2022-12-14T07:20:34.120Z,100315.06
2022-12-14T07:25:36.265Z,100305.84
2022-12-14T07:30:38.398Z,100300.13
2022-12-14T07:35:42.098Z,100288.06
2022-12-14T07:40:44.494Z,100285.09
2022-12-14T07:45:46.867Z,100282.81
2022-12-14T07:50:50.183Z,100284.78
2022-12-14T07:55:52.376Z,100293.22
2022-12-14T08:00:54.527Z,100301.69
2022-12-14T08:05:58.405Z,100285.75
2022-12-14T08:11:01.482Z,100289.84
2022-12-14T08:16:03.896Z,100282.41
2022-12-14T08:21:10.034Z,100286.41
2022-12-14T08:26:12.368Z,100274.47
2022-12-14T08:31:16.673Z,100272.78
2022-12-14T08:36:22.019Z,100273.41
2022-12-14T08:41:25.004Z,100261.16
2022-12-14T08:46:28.920Z,100261.41
2022-12-14T08:51:32.323Z,100256.22
2022-12-14T08:56:34.475Z,100262.78
2022-12-14T09:01:36.729Z,100248.66
2022-12-14T09:06:40.546Z,100246.22
2022-12-14T09:11:42.875Z,100245.78
2022-12-14T09:16:45.056Z,100252.28
2022-12-14T09:21:48.701Z,100241.47
2022-12-14T09:26:51.325Z,100235.47
2022-12-14T09:31:53.978Z,100231.94
2022-12-14T09:36:57.581Z,100214.34
2022-12-14T09:42:13.783Z,100208.06
2022-12-14T09:47:19.855Z,100211.47
2022-12-14T09:52:30.173Z,100197.44
2022-12-14T09:57:38.426Z,100177.03
2022-12-14T10:02:55.816Z,100176.09
2022-12-14T10:08:07.071Z,100174.16
2022-12-14T10:13:21.863Z,100168.69
2022-12-14T10:19:02.143Z,100164.41
2022-12-14T10:24:12.749Z,100156.28
2022-12-14T10:29:21.064Z,100157.88
2022-12-14T10:34:28.189Z,100149.47
2022-12-14T10:39:43.871Z,100150.25
2022-12-14T10:50:31.727Z,100130.84
2022-12-14T10:55:39.808Z,100112.88
2022-12-14T11:00:41.683Z,100108.34
2022-12-14T11:05:53.205Z,100108.50
2022-12-14T11:11:11.581Z,100104.03
2022-12-14T11:16:19.441Z,100100.13
2022-12-14T11:21:29.946Z,100094.00
2022-12-14T11:26:36.705Z,100076.63
2022-12-14T11:31:40.121Z,100085.00
2022-12-14T11:36:42.704Z,100086.84
2022-12-14T11:41:48.283Z,100079.81
2022-12-14T11:46:53.672Z,100077.03
2022-12-14T11:51:59.278Z,100073.88
2022-12-14T11:57:06.266Z,100077.59
2022-12-14T12:02:17.407Z,100073.38
2022-12-14T12:07:26.154Z,100068.19
2022-12-14T12:12:30.587Z,100065.91
2022-12-14T12:17:41.468Z,100062.91
2022-12-14T12:22:48.317Z,100050.22
2022-12-14T12:28:00.483Z,100056.44
2022-12-14T12:33:12.008Z,100048.56
2022-12-14T12:38:22.443Z,100038.34
2022-12-14T12:43:30.869Z,100035.13
2022-12-14T12:48:37.484Z,100029.44
2022-12-14T12:53:44.671Z,100033.97
2022-12-14T12:58:53.143Z,100030.59
2022-12-14T13:03:58.508Z,100020.38
2022-12-14T13:09:07.775Z,100021.69
2022-12-14T13:14:21.472Z,100017.81
2022-12-14T13:24:58.829Z,99995.47
2022-12-14T13:30:22.154Z,100009.22
2022-12-14T13:35:44.699Z,100003.00
2022-12-14T13:41:02.708Z,100000.22
2022-12-14T13:46:11.734Z,99993.97
2022-12-14T13:51:25.458Z,99987.72
2022-12-14T13:56:33.272Z,99984.91
2022-12-14T14:02:00.649Z,99975.94
2022-12-14T14:07:36.368Z,99983.00
2022-12-14T14:12:41.191Z,99974.00
2022-12-14T14:17:46.122Z,99966.72
2022-12-14T14:23:28.378Z,99957.47
2022-12-14T14:28:30.923Z,99958.06
2022-12-14T14:33:47.086Z,99944.09
2022-12-14T14:38:50.855Z,99947.72
2022-12-14T14:43:54.482Z,99954.97
2022-12-14T14:48:58.108Z,99956.41
2022-12-14T14:59:58.824Z,99951.56
2022-12-14T15:05:33.187Z,99958.88
2022-12-14T15:10:31.451Z,99956.28
2022-12-14T15:15:37.228Z,99950.53
2022-12-14T15:20:41.085Z,99958.72
2022-12-14T15:25:43.795Z,99953.16
2022-12-14T15:30:47.882Z,99950.34
2022-12-14T15:35:51.996Z,99951.31
2022-12-14T15:40:56.338Z,99951.91
2022-12-14T15:46:03.189Z,99957.69
2022-12-14T15:51:11.444Z,99947.63
2022-12-14T15:56:23.615Z,99943.78
2022-12-14T16:01:30.486Z,99952.41
2022-12-14T16:06:39.933Z,99940.13
2022-12-14T16:11:44.474Z,99940.00
2022-12-14T16:16:47.690Z,99932.47
2022-12-14T16:22:13.868Z,99935.81
2022-12-14T16:27:20.061Z,99927.13
2022-12-14T16:32:23.241Z,99933.75
2022-12-14T16:37:32.511Z,99927.53
2022-12-14T16:42:36.835Z,99936.22
2022-12-14T16:48:03.568Z,99929.44
2022-12-14T16:53:17.504Z,99931.31
2022-12-14T16:58:19.912Z,99941.03
2022-12-14T17:03:23.584Z,99940.13
2022-12-14T17:08:27.230Z,99943.38
2022-12-14T17:13:30.121Z,99936.56
2022-12-14T17:18:34.798Z,99931.75
2022-12-14T17:23:41.981Z,99944.00
2022-12-14T17:28:44.184Z,99942.78
2022-12-14T17:33:46.506Z,99947.00
2022-12-14T17:38:50.183Z,99945.28
2022-12-14T17:43:57.025Z,99952.22
2022-12-14T17:49:06.018Z,99950.16
2022-12-14T17:54:16.903Z,99956.16
2022-12-14T17:59:19.167Z,99955.56
2022-12-14T18:04:21.708Z,99955.38
2022-12-14T18:09:25.171Z,99963.44
2022-12-14T18:14:27.412Z,99956.06
2022-12-14T18:19:29.627Z,99963.38
2022-12-14T18:24:34.225Z,99963.44
2022-12-14T18:29:36.687Z,99964.75
2022-12-14T18:34:39.134Z,99954.59
2022-12-14T18:39:43.457Z,99959.44
2022-12-14T18:44:51.487Z,99953.78
2022-12-14T18:49:53.923Z,99955.13
2022-12-14T18:54:58.039Z,99950.72
2022-12-14T19:00:00.263Z,99953.28
2022-12-14T19:05:02.277Z,99967.28
2022-12-14T19:10:06.222Z,99974.44
2022-12-14T19:15:14.206Z,99968.28
2022-12-14T19:20:17.725Z,99969.81
2022-12-14T19:25:22.496Z,99979.22
2022-12-14T19:30:25.590Z,99978.34
2022-12-14T19:35:28.338Z,99981.75
2022-12-14T19:40:32.159Z,99974.03
2022-12-14T19:45:34.543Z,99958.44
2022-12-14T19:50:36.775Z,99971.78
2022-12-14T19:55:41.115Z,99972.16
2022-12-14T20:00:43.927Z,99982.66
2022-12-14T20:05:53.190Z,99982.84
2022-12-14T20:10:57.803Z,99981.13
2022-12-14T20:16:00.265Z,99979.69
2022-12-14T20:21:03.732Z,99990.75
2022-12-14T20:26:09.787Z,99995.56
2022-12-14T20:31:14.065Z,99998.75
2022-12-14T20:36:17.466Z,100000.50
2022-12-14T20:41:21.154Z,99984.53
2022-12-14T20:46:30.862Z,99995.56
2022-12-14T20:51:34.758Z,99999.50
2022-12-14T21:03:08.203Z,99996.19
2022-12-14T21:08:11.518Z,99995.22
2022-12-14T21:13:13.677Z,100006.34
2022-12-14T21:18:16.994Z,100004.81
2022-12-14T21:23:19.139Z,100001.47
2022-12-14T21:28:21.315Z,99998.00
2022-12-14T21:33:24.814Z,100011.41
2022-12-14T21:38:27.975Z,100005.56
2022-12-14T21:43:30.039Z,100020.38
2022-12-14T21:48:35.514Z,100013.50
2022-12-14T21:53:38.168Z,100013.03
2022-12-14T21:58:40.516Z,100023.75
2022-12-14T22:03:44.201Z,100027.19
2022-12-14T22:08:51.808Z,100029.88
2022-12-14T22:13:53.967Z,100033.81
2022-12-14T22:18:57.680Z,100028.63
2022-12-14T22:23:59.403Z,100030.19
2022-12-14T22:29:01.512Z,100043.78
2022-12-14T22:34:05.548Z,100045.38
2022-12-14T22:39:07.624Z,100043.91
2022-12-14T22:44:11.591Z,100049.94
2022-12-14T22:49:18.175Z,100046.38
2022-12-14T22:54:23.873Z,100041.84
2022-12-14T22:59:30.325Z,100049.13
2022-12-14T23:04:34.326Z,100046.38
2022-12-14T23:09:36.836Z,100046.94
2022-12-14T23:14:39.058Z,100047.34
2022-12-14T23:19:42.187Z,100053.88
2022-12-14T23:24:44.405Z,100053.06
2022-12-14T23:29:46.522Z,100057.31
2022-12-14T23:34:50.056Z,100049.72
2022-12-14T23:39:52.267Z,100044.84
2022-12-14T23:44:54.350Z,100053.63
2022-12-14T23:49:58.075Z,100056.19
2022-12-14T23:55:00.314Z,100056.94
